createdAt,value
2022-10-18T00:00:52.309Z,8.57
2022-10-18T00:03:20.079Z,7.00
2022-10-18T00:05:48.046Z,7.20
2022-10-18T00:08:16.062Z,6.88
2022-10-18T00:10:45.598Z,7.20
2022-10-18T00:13:13.587Z,8.23
2022-10-18T00:15:41.471Z,7.85
2022-10-18T00:18:09.206Z,7.68
2022-10-18T00:20:36.931Z,7.18
2022-10-18T00:23:04.667Z,6.47
2022-10-18T00:25:32.406Z,6.35
2022-10-18T00:28:01.528Z,7.38
2022-10-18T00:30:29.313Z,9.00
2022-10-18T00:32:57.042Z,7.80
2022-10-18T00:35:24.917Z,8.30
2022-10-18T00:37:52.631Z,8.02
2022-10-18T00:40:20.362Z,8.45
2022-10-18T00:42:48.079Z,7.20
2022-10-18T00:45:21.610Z,6.93
2022-10-18T00:47:54.510Z,7.65
2022-10-18T00:50:24.035Z,7.20
2022-10-18T00:52:55.148Z,9.13
2022-10-18T00:55:23.329Z,11.00
2022-10-18T00:57:51.326Z,9.27
2022-10-18T01:00:20.870Z,8.60
2022-10-18T01:02:48.868Z,10.20
2022-10-18T01:05:19.067Z,11.07
2022-10-18T01:08:02.934Z,10.45
2022-10-18T01:10:36.507Z,9.25
2022-10-18T01:13:14.869Z,10.07
2022-10-18T01:15:50.817Z,9.40
2022-10-18T01:18:26.229Z,10.80
2022-10-18T01:21:08.828Z,11.38
2022-10-18T01:23:55.303Z,11.75
2022-10-18T01:26:38.028Z,11.77
2022-10-18T01:29:18.829Z,12.60
2022-10-18T01:31:51.066Z,11.73
2022-10-18T01:34:20.993Z,11.05
2022-10-18T01:36:53.113Z,12.32
2022-10-18T01:39:25.533Z,11.55
2022-10-18T01:41:55.870Z,11.48
2022-10-18T01:44:27.648Z,11.02
2022-10-18T01:46:58.507Z,11.45
2022-10-18T01:49:27.470Z,11.02
2022-10-18T01:51:55.219Z,11.32
2022-10-18T01:54:27.340Z,10.63
2022-10-18T01:56:59.893Z,11.80
2022-10-18T01:59:40.521Z,10.55
2022-10-18T02:02:20.010Z,11.00
2022-10-18T02:04:55.436Z,9.85
2022-10-18T02:07:33.824Z,10.27
2022-10-18T02:10:09.035Z,10.02
2022-10-18T02:12:40.706Z,10.55
2022-10-18T02:15:09.984Z,10.13
2022-10-18T02:17:41.001Z,9.90
2022-10-18T02:25:14.603Z,9.55
2022-10-18T02:27:42.490Z,8.93
2022-10-18T02:30:11.571Z,9.48
2022-10-18T02:32:45.361Z,9.57
2022-10-18T02:35:21.049Z,9.30
2022-10-18T02:37:51.385Z,9.05
2022-10-18T02:40:19.660Z,9.43
2022-10-18T02:42:49.875Z,9.55
2022-10-18T02:45:18.650Z,10.07
2022-10-18T02:47:47.793Z,10.07
2022-10-18T02:50:16.020Z,9.25
2022-10-18T02:52:43.736Z,9.18
2022-10-18T02:55:12.073Z,8.30
2022-10-18T02:57:39.790Z,8.00
2022-10-18T03:00:08.690Z,8.40
2022-10-18T03:02:36.650Z,8.73
2022-10-18T03:05:06.402Z,9.57
2022-10-18T03:07:34.312Z,8.93
2022-10-18T03:10:02.270Z,8.63
2022-10-18T03:12:30.007Z,7.78
2022-10-18T03:14:57.705Z,8.23
2022-10-18T03:17:25.532Z,7.75
2022-10-18T03:19:53.277Z,8.23
2022-10-18T03:22:22.790Z,8.82
2022-10-18T03:24:50.535Z,8.70
2022-10-18T03:27:18.295Z,8.57
2022-10-18T03:29:46.014Z,8.32
2022-10-18T03:32:13.756Z,8.80
2022-10-18T03:34:41.525Z,7.85
2022-10-18T03:37:09.699Z,8.18
2022-10-18T03:39:38.793Z,7.82
2022-10-18T03:42:06.499Z,7.82
2022-10-18T03:44:34.231Z,7.80
2022-10-18T03:47:01.961Z,8.70
2022-10-18T03:49:29.736Z,7.68
2022-10-18T03:51:57.514Z,7.57
2022-10-18T03:54:25.282Z,7.55
2022-10-18T03:56:54.345Z,7.75
2022-10-18T03:59:22.625Z,7.22
2022-10-18T04:01:50.553Z,7.00
2022-10-18T04:04:18.380Z,7.28
2022-10-18T04:06:46.349Z,6.80
2022-10-18T04:09:14.126Z,7.20
2022-10-18T04:11:41.985Z,7.00
2022-10-18T04:14:11.121Z,7.00
2022-10-18T04:16:38.889Z,6.38
2022-10-18T04:19:06.602Z,7.15
2022-10-18T04:21:34.415Z,7.35
2022-10-18T04:24:02.151Z,6.57
2022-10-18T04:26:29.909Z,6.18
2022-10-18T04:28:57.671Z,6.35
2022-10-18T04:31:26.842Z,6.22
2022-10-18T04:33:54.955Z,4.50
2022-10-18T04:36:22.698Z,4.07
2022-10-18T04:38:50.456Z,4.00
2022-10-18T04:41:18.241Z,3.50
2022-10-18T04:46:18.665Z,4.47
2022-10-18T04:48:47.784Z,4.70
2022-10-18T04:51:15.564Z,4.60
2022-10-18T04:53:43.253Z,4.72
2022-10-18T04:56:10.964Z,5.45
2022-10-18T04:58:38.724Z,4.53
2022-10-18T05:01:07.375Z,5.00
2022-10-18T05:03:35.216Z,5.03
2022-10-18T05:06:05.395Z,4.47
2022-10-18T05:08:34.634Z,5.20
2022-10-18T05:11:02.972Z,4.85
2022-10-18T05:13:31.138Z,4.30
2022-10-18T05:16:00.684Z,4.32
2022-10-18T05:18:28.603Z,4.57
2022-10-18T05:20:56.315Z,4.53
2022-10-18T05:23:25.785Z,5.05
2022-10-18T05:25:53.489Z,4.80
2022-10-18T05:28:38.645Z,4.97
2022-10-18T05:31:08.766Z,4.85
2022-10-18T05:33:36.601Z,5.13
2022-10-18T05:36:04.679Z,5.15
2022-10-18T05:38:33.844Z,5.03
2022-10-18T05:41:05.379Z,4.75
2022-10-18T05:43:33.119Z,5.13
2022-10-18T05:46:00.832Z,5.65
2022-10-18T05:48:28.602Z,5.68
2022-10-18T05:50:59.077Z,6.15
2022-10-18T05:53:42.431Z,5.97
2022-10-18T05:56:12.361Z,6.57
2022-10-18T05:58:40.973Z,6.93
2022-10-18T06:01:09.891Z,6.78
2022-10-18T06:03:37.972Z,5.30
2022-10-18T06:06:07.965Z,5.75
2022-10-18T06:09:03.612Z,5.78
2022-10-18T06:11:38.171Z,6.00
2022-10-18T06:14:06.227Z,6.10
2022-10-18T06:16:34.076Z,5.45
2022-10-18T06:19:01.882Z,5.68
2022-10-18T06:21:29.706Z,5.85
2022-10-18T06:23:59.098Z,5.97
2022-10-18T06:26:28.059Z,6.00
2022-10-18T06:28:57.347Z,6.03
2022-10-18T06:31:25.095Z,6.47
2022-10-18T06:33:52.833Z,6.38
2022-10-18T06:36:22.385Z,8.63
2022-10-18T06:38:50.373Z,6.47
2022-10-18T06:41:19.259Z,6.22
2022-10-18T06:43:49.587Z,6.60
2022-10-18T06:46:18.778Z,6.88
2022-10-18T06:48:46.980Z,7.20
2022-10-18T06:51:15.187Z,7.78
2022-10-18T06:58:00.950Z,6.28
2022-10-18T07:03:34.702Z,6.70
2022-10-18T07:06:03.382Z,6.25
2022-10-18T07:15:34.940Z,5.65
2022-10-18T07:18:45.039Z,5.22
2022-10-18T07:21:16.049Z,5.22
2022-10-18T07:26:15.699Z,4.85
2022-10-18T07:28:45.778Z,5.10
2022-10-18T07:31:14.195Z,4.97
2022-10-18T07:33:43.173Z,4.68
2022-10-18T07:36:12.611Z,4.75
2022-10-18T07:38:42.115Z,4.60
2022-10-18T07:41:13.074Z,4.35
2022-10-18T07:43:43.808Z,4.20
2022-10-18T07:46:11.564Z,4.28
2022-10-18T07:48:39.424Z,4.20
2022-10-18T07:51:07.477Z,4.10
2022-10-18T07:53:35.525Z,3.88
2022-10-18T07:56:08.751Z,4.18
2022-10-18T07:58:37.452Z,4.03
2022-10-18T08:01:07.113Z,3.92
2022-10-18T08:06:09.133Z,4.45
2022-10-18T08:08:39.326Z,4.25
2022-10-18T08:11:10.995Z,4.03
2022-10-18T08:13:38.762Z,3.67
2022-10-18T08:16:08.949Z,4.05
2022-10-18T08:18:38.052Z,4.10
2022-10-18T08:21:07.696Z,4.10
2022-10-18T08:23:36.604Z,4.13
2022-10-18T08:26:05.797Z,4.30
2022-10-18T08:28:36.710Z,4.47
2022-10-18T08:31:05.107Z,4.47
2022-10-18T08:33:33.318Z,4.40
2022-10-18T08:36:05.860Z,4.63
2022-10-18T08:38:34.731Z,4.95
2022-10-18T08:41:14.367Z,4.80
2022-10-18T08:43:48.180Z,4.65
2022-10-18T08:46:16.012Z,4.72
2022-10-18T08:48:48.628Z,4.50
2022-10-18T08:51:28.153Z,4.55
2022-10-18T08:54:03.101Z,5.00
2022-10-18T08:56:32.163Z,5.13
2022-10-18T08:59:03.160Z,4.85
2022-10-18T09:01:41.706Z,5.35
2022-10-18T09:04:25.469Z,5.18
2022-10-18T09:07:08.838Z,5.05
2022-10-18T09:09:44.622Z,4.97
2022-10-18T09:12:36.999Z,5.43
2022-10-18T09:15:14.620Z,4.72
2022-10-18T09:17:55.746Z,4.72
2022-10-18T09:20:28.625Z,4.85
2022-10-18T09:23:00.360Z,4.90
2022-10-18T09:25:36.402Z,4.57
2022-10-18T09:28:16.850Z,4.30
2022-10-18T09:30:57.222Z,4.57
2022-10-18T09:33:36.652Z,4.65
2022-10-18T09:36:07.209Z,4.40
2022-10-18T09:38:43.870Z,3.70
2022-10-18T09:41:17.928Z,4.25
2022-10-18T09:43:53.251Z,3.88
2022-10-18T09:46:28.847Z,3.47
2022-10-18T09:49:01.356Z,3.50
2022-10-18T09:51:34.875Z,3.05
2022-10-18T09:54:15.624Z,3.10
2022-10-18T09:56:49.792Z,2.67
2022-10-18T09:59:36.938Z,2.90
2022-10-18T10:02:07.402Z,3.17
2022-10-18T10:04:35.229Z,2.90
2022-10-18T10:07:03.551Z,2.28
2022-10-18T10:09:37.796Z,1.60
2022-10-18T10:12:05.970Z,1.40
2022-10-18T10:14:44.889Z,1.35
2022-10-18T10:17:25.280Z,0.95
2022-10-18T10:20:00.036Z,1.20
2022-10-18T10:22:31.637Z,1.02
2022-10-18T10:24:59.855Z,1.00
2022-10-18T10:27:32.724Z,1.20
2022-10-18T10:30:06.804Z,1.30
2022-10-18T10:32:47.974Z,1.02
2022-10-18T10:35:33.885Z,1.13
2022-10-18T10:38:24.126Z,1.20
2022-10-18T10:40:51.874Z,1.25
2022-10-18T10:43:40.467Z,1.17
2022-10-18T10:46:10.544Z,1.02
2022-10-18T10:48:48.333Z,1.27
2022-10-18T10:51:21.218Z,1.10
2022-10-18T10:53:52.564Z,1.23
2022-10-18T10:56:27.279Z,1.00
2022-10-18T10:58:56.799Z,1.15
2022-10-18T11:01:33.677Z,0.95
2022-10-18T11:04:24.742Z,1.20
2022-10-18T11:07:04.832Z,1.17
2022-10-18T11:09:46.561Z,1.08
2022-10-18T11:12:27.752Z,1.13
2022-10-18T11:15:05.453Z,1.20
2022-10-18T11:17:40.660Z,1.20
2022-10-18T11:20:24.142Z,1.00
2022-10-18T11:23:01.150Z,1.25
2022-10-18T11:26:15.271Z,1.38
2022-10-18T11:28:59.157Z,1.02
2022-10-18T11:31:33.586Z,0.98
2022-10-18T11:34:14.840Z,1.10
2022-10-18T11:36:56.470Z,1.10
2022-10-18T11:39:42.201Z,1.20
2022-10-18T11:42:20.282Z,1.40
2022-10-18T11:44:58.206Z,1.20
2022-10-18T11:47:36.991Z,1.10
2022-10-18T11:50:14.995Z,1.10
2022-10-18T11:52:55.019Z,1.02
2022-10-18T11:55:37.797Z,1.08
2022-10-18T11:58:24.468Z,1.38
2022-10-18T12:00:59.841Z,1.17
2022-10-18T12:03:38.509Z,1.45
2022-10-18T12:06:13.402Z,1.10
2022-10-18T12:08:45.261Z,1.30
2022-10-18T12:11:17.433Z,1.00
2022-10-18T12:13:50.730Z,1.20
2022-10-18T12:16:45.613Z,2.55
2022-10-18T12:19:25.208Z,1.40
2022-10-18T12:21:57.406Z,1.25
2022-10-18T12:24:29.624Z,0.93
2022-10-18T12:27:00.235Z,1.25
2022-10-18T12:32:02.073Z,0.90
2022-10-18T12:34:36.525Z,1.10
2022-10-18T12:37:26.357Z,1.20
2022-10-18T12:40:09.784Z,1.35
2022-10-18T12:42:45.649Z,1.00
2022-10-18T12:45:27.524Z,1.10
2022-10-18T12:47:59.503Z,0.90
2022-10-18T12:50:33.908Z,1.00
2022-10-18T12:53:05.432Z,0.85
2022-10-18T12:55:38.491Z,0.70
2022-10-18T12:58:23.733Z,1.00
2022-10-18T13:01:01.210Z,0.93
2022-10-18T13:03:41.895Z,0.80
2022-10-18T13:06:09.838Z,0.95
2022-10-18T13:08:43.035Z,0.95
2022-10-18T13:11:35.731Z,0.93
2022-10-18T13:14:24.729Z,1.23
2022-10-18T13:16:58.561Z,1.00
2022-10-18T13:19:34.623Z,0.90
2022-10-18T13:22:19.881Z,0.90
2022-10-18T13:25:01.785Z,0.98
2022-10-18T13:27:40.451Z,1.00
2022-10-18T13:30:34.624Z,1.05
2022-10-18T13:35:55.521Z,0.98
2022-10-18T13:38:48.329Z,1.20
2022-10-18T13:41:19.842Z,1.13
2022-10-18T13:44:30.430Z,1.55
2022-10-18T13:47:34.953Z,1.55
2022-10-18T13:50:28.079Z,1.13
2022-10-18T13:53:23.300Z,1.30
2022-10-18T13:58:44.612Z,1.42
2022-10-18T14:04:45.708Z,1.10
2022-10-18T14:07:14.119Z,1.15
2022-10-18T14:09:54.893Z,1.00
2022-10-18T14:12:30.320Z,1.23
2022-10-18T14:15:06.349Z,0.95
2022-10-18T14:17:43.250Z,1.10
2022-10-18T14:20:27.353Z,1.17
2022-10-18T14:23:03.615Z,2.28
2022-10-18T14:25:35.510Z,0.90
2022-10-18T14:28:14.234Z,1.05
2022-10-18T14:30:57.591Z,1.35
2022-10-18T14:33:29.482Z,1.48
2022-10-18T14:36:02.307Z,1.35
2022-10-18T14:38:31.051Z,1.55
2022-10-18T14:41:16.464Z,1.52
2022-10-18T14:43:46.103Z,1.65
2022-10-18T14:46:22.013Z,1.45
2022-10-18T14:48:57.824Z,1.77
2022-10-18T14:51:26.236Z,1.38
2022-10-18T14:53:54.986Z,1.40
2022-10-18T14:56:27.528Z,1.33
2022-10-18T14:58:58.454Z,1.35
2022-10-18T15:01:29.324Z,1.20
2022-10-18T15:04:01.061Z,1.20
2022-10-18T15:06:28.925Z,1.40
2022-10-18T15:08:58.878Z,1.20
2022-10-18T15:11:28.254Z,1.20
2022-10-18T15:13:58.459Z,1.30
2022-10-18T15:16:28.812Z,1.63
2022-10-18T15:19:07.137Z,1.30
2022-10-18T15:21:36.654Z,1.13
2022-10-18T15:24:21.778Z,1.30
2022-10-18T15:26:51.101Z,1.42
2022-10-18T15:29:21.010Z,1.25
2022-10-18T15:31:51.056Z,1.15
2022-10-18T15:34:23.446Z,1.27
2022-10-18T15:36:53.014Z,1.40
2022-10-18T15:39:23.214Z,1.23
2022-10-18T15:41:52.672Z,1.33
2022-10-18T15:44:26.998Z,1.80
2022-10-18T15:46:56.690Z,1.40
2022-10-18T15:49:59.936Z,1.60
2022-10-18T15:52:38.669Z,1.50
2022-10-18T15:55:49.325Z,1.60
2022-10-18T15:58:25.722Z,1.33
2022-10-18T16:00:56.317Z,1.27
2022-10-18T16:03:24.890Z,1.52
2022-10-18T16:06:00.357Z,1.50
2022-10-18T16:08:30.487Z,1.42
2022-10-18T16:10:58.880Z,1.40
2022-10-18T16:13:27.290Z,1.40
2022-10-18T16:15:56.631Z,1.60
2022-10-18T16:18:27.899Z,1.75
2022-10-18T16:20:57.926Z,1.70
2022-10-18T16:23:28.513Z,1.70
2022-10-18T16:25:56.820Z,1.90
2022-10-18T16:28:26.652Z,1.70
2022-10-18T16:30:57.468Z,1.80
2022-10-18T16:33:26.219Z,1.88
2022-10-18T16:35:55.416Z,1.92
2022-10-18T16:38:32.787Z,1.70
2022-10-18T16:41:03.782Z,1.50
2022-10-18T16:43:31.639Z,1.52
2022-10-18T16:45:59.373Z,1.85
2022-10-18T16:48:27.289Z,2.15
2022-10-18T16:50:56.593Z,1.80
2022-10-18T16:53:26.084Z,1.80
2022-10-18T16:55:57.207Z,1.63
2022-10-18T16:58:26.315Z,1.75
2022-10-18T17:00:54.515Z,1.60
2022-10-18T17:03:25.894Z,1.60
2022-10-18T17:05:54.205Z,1.83
2022-10-18T17:08:24.740Z,1.92
2022-10-18T17:10:56.200Z,1.83
2022-10-18T17:13:25.358Z,1.92
2022-10-18T17:15:54.166Z,1.75
2022-10-18T17:18:24.674Z,2.00
2022-10-18T17:20:52.450Z,1.70
2022-10-18T17:23:20.738Z,2.25
2022-10-18T17:26:04.649Z,2.42
2022-10-18T17:28:38.324Z,2.60
2022-10-18T17:31:09.842Z,2.28
2022-10-18T17:33:37.835Z,2.45
2022-10-18T17:36:06.381Z,2.50
2022-10-18T17:38:34.385Z,2.83
2022-10-18T17:41:07.390Z,2.90
2022-10-18T17:46:08.398Z,2.78
2022-10-18T17:48:36.214Z,2.75
2022-10-18T17:51:08.028Z,2.42
2022-10-18T17:53:36.172Z,2.83
2022-10-18T17:56:07.769Z,2.50
2022-10-18T17:58:36.165Z,2.80
2022-10-18T18:01:14.029Z,2.08
2022-10-18T18:03:42.450Z,2.42
2022-10-18T18:06:15.997Z,2.40
2022-10-18T18:08:43.808Z,2.30
2022-10-18T18:11:11.599Z,3.33
2022-10-18T18:13:39.472Z,3.33
2022-10-18T18:16:14.279Z,3.35
2022-10-18T18:18:42.866Z,3.60
2022-10-18T18:21:11.524Z,3.45
2022-10-18T18:23:39.284Z,2.88
2022-10-18T18:26:07.494Z,2.35
2022-10-18T18:28:36.108Z,2.58
2022-10-18T18:31:08.144Z,2.85
2022-10-18T18:33:37.925Z,3.10
2022-10-18T18:36:07.053Z,2.42
2022-10-18T18:38:36.830Z,2.88
2022-10-18T18:41:07.669Z,4.40
2022-10-18T18:43:35.731Z,4.40
2022-10-18T18:46:03.928Z,4.97
2022-10-18T18:48:33.549Z,3.88
2022-10-18T18:51:03.256Z,3.42
2022-10-18T18:53:31.464Z,3.83
2022-10-18T18:56:05.595Z,3.15
2022-10-18T18:58:34.849Z,3.15
2022-10-18T19:01:07.578Z,3.10
2022-10-18T19:03:36.839Z,2.97
2022-10-18T19:06:08.464Z,3.75
2022-10-18T19:08:38.075Z,3.20
2022-10-18T19:11:09.075Z,3.22
2022-10-18T19:13:37.535Z,3.08
2022-10-18T19:16:27.415Z,3.22
2022-10-18T19:18:59.165Z,3.97
2022-10-18T19:21:34.854Z,4.25
2022-10-18T19:24:06.705Z,4.40
2022-10-18T19:26:37.800Z,4.72
2022-10-18T19:29:09.042Z,4.80
2022-10-18T19:31:38.003Z,3.83
2022-10-18T19:34:07.647Z,3.78
2022-10-18T19:36:37.593Z,3.03
2022-10-18T19:39:07.572Z,2.83
2022-10-18T19:41:36.035Z,3.25
2022-10-18T19:44:03.826Z,4.47
2022-10-18T19:46:31.595Z,3.80
2022-10-18T19:48:59.293Z,3.70
2022-10-18T19:51:28.330Z,3.50
2022-10-18T19:53:58.373Z,4.18
2022-10-18T19:56:27.770Z,3.47
2022-10-18T19:58:55.850Z,4.57
2022-10-18T20:01:25.807Z,3.60
2022-10-18T20:03:53.923Z,2.95
2022-10-18T20:06:21.876Z,3.45
2022-10-18T20:08:49.977Z,3.80
2022-10-18T20:11:21.550Z,4.20
2022-10-18T20:13:49.984Z,3.90
2022-10-18T20:16:20.123Z,4.88
2022-10-18T20:18:49.951Z,5.50
2022-10-18T20:21:19.000Z,5.20
2022-10-18T20:23:46.733Z,6.18
2022-10-18T20:26:19.657Z,7.10
2022-10-18T20:28:56.027Z,6.80
2022-10-18T20:31:25.260Z,7.90
2022-10-18T20:33:56.349Z,7.65
2022-10-18T20:38:51.707Z,8.30
2022-10-18T20:41:21.687Z,6.32
2022-10-18T20:43:53.479Z,7.38
2022-10-18T20:46:21.559Z,7.28
2022-10-18T20:48:50.222Z,6.45
2022-10-18T20:51:18.026Z,5.30
2022-10-18T20:53:46.669Z,5.32
2022-10-18T20:56:16.257Z,5.47
2022-10-18T20:58:45.670Z,4.40
2022-10-18T21:01:17.744Z,4.45
2022-10-18T21:03:47.932Z,4.43
2022-10-18T21:06:18.330Z,5.13
2022-10-18T21:08:46.180Z,7.05
2022-10-18T21:11:16.067Z,6.63
2022-10-18T21:13:43.815Z,5.25
2022-10-18T21:16:11.589Z,5.00
2022-10-18T21:18:41.032Z,4.70
2022-10-18T21:21:10.961Z,5.03
2022-10-18T21:23:38.922Z,4.70
2022-10-18T21:26:07.262Z,4.80
2022-10-18T21:28:35.673Z,4.50
2022-10-18T21:31:14.480Z,4.40
2022-10-18T21:33:45.367Z,4.85
2022-10-18T21:36:13.988Z,4.80
2022-10-18T21:38:45.564Z,5.15
2022-10-18T21:41:14.766Z,5.07
2022-10-18T21:43:44.119Z,5.40
2022-10-18T21:46:12.824Z,6.30
2022-10-18T21:48:46.102Z,6.43
2022-10-18T21:51:15.490Z,7.18
2022-10-18T21:53:44.325Z,8.40
2022-10-18T21:56:14.489Z,9.18
2022-10-18T21:58:42.862Z,9.43
2022-10-18T22:01:11.170Z,10.48
2022-10-18T22:03:39.798Z,9.70
2022-10-18T22:06:13.913Z,9.85
2022-10-18T22:08:42.165Z,9.60
2022-10-18T22:11:13.231Z,8.77
2022-10-18T22:13:42.485Z,9.02
2022-10-18T22:16:12.173Z,8.70
2022-10-18T22:18:39.870Z,7.55
2022-10-18T22:21:11.073Z,7.13
2022-10-18T22:23:41.752Z,7.30
2022-10-18T22:26:12.163Z,7.13
2022-10-18T22:28:41.593Z,7.65
2022-10-18T22:31:16.912Z,7.43
2022-10-18T22:33:45.124Z,7.90
2022-10-18T22:36:16.733Z,7.78
2022-10-18T22:38:44.442Z,8.80
2022-10-18T22:41:14.308Z,8.63
2022-10-18T22:43:42.145Z,5.93
2022-10-18T22:46:12.697Z,6.00
2022-10-18T22:48:40.970Z,5.88
2022-10-18T22:51:09.313Z,6.50
2022-10-18T22:53:39.838Z,6.97
2022-10-18T22:56:08.729Z,7.90
2022-10-18T22:58:36.659Z,8.95
2022-10-18T23:01:07.561Z,9.15
2022-10-18T23:03:35.670Z,8.02
2022-10-18T23:06:04.237Z,8.82
2022-10-18T23:08:32.837Z,8.07
2022-10-18T23:11:02.901Z,8.77
2022-10-18T23:13:30.653Z,8.75
2022-10-18T23:16:04.626Z,8.45
2022-10-18T23:18:33.939Z,8.02
2022-10-18T23:21:05.401Z,7.75
2022-10-18T23:23:35.462Z,7.78
2022-10-18T23:26:06.445Z,6.90
2022-10-18T23:28:35.761Z,7.00
2022-10-18T23:31:11.573Z,6.85
2022-10-18T23:33:39.865Z,6.40
2022-10-18T23:36:09.432Z,7.03
2022-10-18T23:38:38.928Z,6.63
2022-10-18T23:41:10.621Z,7.03
2022-10-18T23:43:39.574Z,6.75
2022-10-18T23:46:07.483Z,6.00
2022-10-18T23:48:35.448Z,6.40
2022-10-18T23:51:05.867Z,6.30
2022-10-18T23:53:34.618Z,6.55
2022-10-18T23:56:06.568Z,7.32
2022-10-18T23:58:36.865Z,5.78
